sensor_id;sensor_type;location;lat;lon;timestamp;P1;durP1;ratioP1;P2;durP2;ratioP2
72085;SDS011;64750;52.134;5.424;2023-09-12T00:00:48;27.60;;;19.75;;
72085;SDS011;64750;52.134;5.424;2023-09-12T00:03:18;30.53;;;21.07;;
72085;SDS011;64750;52.134;5.424;2023-09-12T00:05:53;28.98;;;20.48;;
72085;SDS011;64750;52.134;5.424;2023-09-12T00:08:20;28.77;;;20.75;;
72085;SDS011;64750;52.134;5.424;2023-09-12T00:10:46;27.88;;;20.15;;
72085;SDS011;64750;52.134;5.424;2023-09-12T00:13:13;28.42;;;21.05;;
72085;SDS011;64750;52.134;5.424;2023-09-12T00:15:39;27.93;;;20.43;;
72085;SDS011;64750;52.134;5.424;2023-09-12T00:18:06;26.02;;;19.67;;
72085;SDS011;64750;52.134;5.424;2023-09-12T00:20:32;30.38;;;21.17;;
72085;SDS011;64750;52.134;5.424;2023-09-12T00:22:59;31.00;;;20.88;;
72085;SDS011;64750;52.134;5.424;2023-09-12T00:25:25;29.80;;;21.67;;
72085;SDS011;64750;52.134;5.424;2023-09-12T00:27:52;27.90;;;20.17;;
72085;SDS011;64750;52.134;5.424;2023-09-12T00:30:18;32.00;;;21.23;;
72085;SDS011;64750;52.134;5.424;2023-09-12T00:32:45;28.50;;;21.20;;
72085;SDS011;64750;52.134;5.424;2023-09-12T00:35:13;31.75;;;20.83;;
72085;SDS011;64750;52.134;5.424;2023-09-12T00:37:39;29.83;;;20.10;;
72085;SDS011;64750;52.134;5.424;2023-09-12T00:40:06;28.77;;;20.57;;
72085;SDS011;64750;52.134;5.424;2023-09-12T00:42:33;26.27;;;19.15;;
72085;SDS011;64750;52.134;5.424;2023-09-12T00:44:59;27.77;;;19.75;;
72085;SDS011;64750;52.134;5.424;2023-09-12T00:47:26;23.90;;;19.02;;
72085;SDS011;64750;52.134;5.424;2023-09-12T00:49:55;24.55;;;18.77;;
72085;SDS011;64750;52.134;5.424;2023-09-12T00:52:24;26.67;;;19.37;;
72085;SDS011;64750;52.134;5.424;2023-09-12T00:54:52;24.05;;;18.73;;
72085;SDS011;64750;52.134;5.424;2023-09-12T00:57:20;26.27;;;19.80;;
72085;SDS011;64750;52.134;5.424;2023-09-12T00:59:48;24.95;;;18.88;;
72085;SDS011;64750;52.134;5.424;2023-09-12T01:02:15;22.73;;;17.38;;
72085;SDS011;64750;52.134;5.424;2023-09-12T01:04:42;25.00;;;19.70;;
72085;SDS011;64750;52.134;5.424;2023-09-12T01:07:09;25.63;;;18.80;;
72085;SDS011;64750;52.134;5.424;2023-09-12T01:09:35;28.15;;;19.73;;
72085;SDS011;64750;52.134;5.424;2023-09-12T01:12:02;26.38;;;19.00;;
72085;SDS011;64750;52.134;5.424;2023-09-12T01:14:29;21.63;;;18.38;;
72085;SDS011;64750;52.134;5.424;2023-09-12T01:16:57;21.67;;;17.40;;
72085;SDS011;64750;52.134;5.424;2023-09-12T01:19:27;25.30;;;19.15;;
72085;SDS011;64750;52.134;5.424;2023-09-12T01:22:02;20.83;;;18.15;;
72085;SDS011;64750;52.134;5.424;2023-09-12T01:25:34;22.23;;;18.13;;
72085;SDS011;64750;52.134;5.424;2023-09-12T01:27:51;20.75;;;16.73;;
72085;SDS011;64750;52.134;5.424;2023-09-12T01:30:20;22.23;;;17.60;;
72085;SDS011;64750;52.134;5.424;2023-09-12T01:32:47;23.40;;;17.30;;
72085;SDS011;64750;52.134;5.424;2023-09-12T01:35:15;22.05;;;17.13;;
72085;SDS011;64750;52.134;5.424;2023-09-12T01:37:41;23.73;;;17.88;;
72085;SDS011;64750;52.134;5.424;2023-09-12T01:40:08;20.55;;;17.08;;
72085;SDS011;64750;52.134;5.424;2023-09-12T01:42:37;23.80;;;17.93;;
72085;SDS011;64750;52.134;5.424;2023-09-12T01:45:08;20.50;;;17.25;;
72085;SDS011;64750;52.134;5.424;2023-09-12T01:47:37;21.40;;;17.33;;
72085;SDS011;64750;52.134;5.424;2023-09-12T01:50:06;21.38;;;17.27;;
72085;SDS011;64750;52.134;5.424;2023-09-12T01:52:38;19.17;;;16.65;;
72085;SDS011;64750;52.134;5.424;2023-09-12T01:55:05;18.77;;;16.23;;
72085;SDS011;64750;52.134;5.424;2023-09-12T01:57:37;18.77;;;16.88;;
72085;SDS011;64750;52.134;5.424;2023-09-12T02:00:04;17.52;;;15.73;;
72085;SDS011;64750;52.134;5.424;2023-09-12T02:02:31;18.58;;;16.00;;
72085;SDS011;64750;52.134;5.424;2023-09-12T02:05:09;17.10;;;15.48;;
72085;SDS011;64750;52.134;5.424;2023-09-12T02:07:40;18.30;;;16.50;;
72085;SDS011;64750;52.134;5.424;2023-09-12T02:10:07;19.13;;;15.65;;
72085;SDS011;64750;52.134;5.424;2023-09-12T02:12:36;23.80;;;16.58;;
72085;SDS011;64750;52.134;5.424;2023-09-12T02:15:03;18.70;;;16.77;;
72085;SDS011;64750;52.134;5.424;2023-09-12T02:17:30;17.95;;;15.98;;
72085;SDS011;64750;52.134;5.424;2023-09-12T02:19:57;22.13;;;17.07;;
72085;SDS011;64750;52.134;5.424;2023-09-12T02:22:25;28.02;;;16.13;;
72085;SDS011;64750;52.134;5.424;2023-09-12T02:24:51;27.15;;;14.73;;
72085;SDS011;64750;52.134;5.424;2023-09-12T02:27:18;14.95;;;13.63;;
72085;SDS011;64750;52.134;5.424;2023-09-12T02:29:44;15.98;;;14.45;;
72085;SDS011;64750;52.134;5.424;2023-09-12T02:32:13;19.97;;;14.73;;
72085;SDS011;64750;52.134;5.424;2023-09-12T02:34:40;15.77;;;14.27;;
72085;SDS011;64750;52.134;5.424;2023-09-12T02:37:06;15.73;;;14.27;;
72085;SDS011;64750;52.134;5.424;2023-09-12T02:39:33;15.05;;;13.63;;
72085;SDS011;64750;52.134;5.424;2023-09-12T02:41:59;14.93;;;13.45;;
72085;SDS011;64750;52.134;5.424;2023-09-12T02:44:26;23.60;;;13.07;;
72085;SDS011;64750;52.134;5.424;2023-09-12T02:46:52;15.52;;;13.98;;
72085;SDS011;64750;52.134;5.424;2023-09-12T02:49:19;14.95;;;13.48;;
72085;SDS011;64750;52.134;5.424;2023-09-12T02:51:45;17.27;;;13.20;;
72085;SDS011;64750;52.134;5.424;2023-09-12T02:54:12;13.90;;;12.70;;
72085;SDS011;64750;52.134;5.424;2023-09-12T02:56:39;14.50;;;13.10;;
72085;SDS011;64750;52.134;5.424;2023-09-12T02:59:05;16.77;;;14.30;;
72085;SDS011;64750;52.134;5.424;2023-09-12T03:01:31;17.92;;;14.27;;
72085;SDS011;64750;52.134;5.424;2023-09-12T03:03:58;14.40;;;13.10;;
72085;SDS011;64750;52.134;5.424;2023-09-12T03:06:28;15.48;;;13.98;;
72085;SDS011;64750;52.134;5.424;2023-09-12T03:08:56;14.20;;;12.73;;
72085;SDS011;64750;52.134;5.424;2023-09-12T03:11:26;14.52;;;13.23;;
72085;SDS011;64750;52.134;5.424;2023-09-12T03:13:54;15.88;;;14.35;;
72085;SDS011;64750;52.134;5.424;2023-09-12T03:16:20;14.88;;;13.55;;
72085;SDS011;64750;52.134;5.424;2023-09-12T03:18:47;14.45;;;13.05;;
72085;SDS011;64750;52.134;5.424;2023-09-12T03:21:13;14.57;;;13.27;;
72085;SDS011;64750;52.134;5.424;2023-09-12T03:23:40;15.13;;;13.73;;
72085;SDS011;64750;52.134;5.424;2023-09-12T03:26:06;15.43;;;13.88;;
72085;SDS011;64750;52.134;5.424;2023-09-12T03:28:33;15.20;;;13.70;;
72085;SDS011;64750;52.134;5.424;2023-09-12T03:31:03;15.05;;;13.65;;
72085;SDS011;64750;52.134;5.424;2023-09-12T03:33:34;15.60;;;13.53;;
72085;SDS011;64750;52.134;5.424;2023-09-12T03:36:01;14.23;;;12.93;;
72085;SDS011;64750;52.134;5.424;2023-09-12T03:38:27;15.23;;;13.82;;
72085;SDS011;64750;52.134;5.424;2023-09-12T03:40:54;15.75;;;14.07;;
72085;SDS011;64750;52.134;5.424;2023-09-12T03:43:20;16.00;;;14.40;;
72085;SDS011;64750;52.134;5.424;2023-09-12T03:45:47;15.80;;;14.20;;
72085;SDS011;64750;52.134;5.424;2023-09-12T03:48:13;16.73;;;14.70;;
72085;SDS011;64750;52.134;5.424;2023-09-12T03:50:40;17.38;;;14.32;;
72085;SDS011;64750;52.134;5.424;2023-09-12T03:53:06;16.40;;;14.80;;
72085;SDS011;64750;52.134;5.424;2023-09-12T03:55:33;15.57;;;13.98;;
72085;SDS011;64750;52.134;5.424;2023-09-12T03:57:59;15.60;;;14.00;;
72085;SDS011;64750;52.134;5.424;2023-09-12T04:00:26;16.42;;;14.73;;
72085;SDS011;64750;52.134;5.424;2023-09-12T04:02:52;20.58;;;15.30;;
72085;SDS011;64750;52.134;5.424;2023-09-12T04:05:19;17.27;;;14.95;;
72085;SDS011;64750;52.134;5.424;2023-09-12T04:07:45;16.90;;;14.25;;
72085;SDS011;64750;52.134;5.424;2023-09-12T04:10:12;17.97;;;15.20;;
72085;SDS011;64750;52.134;5.424;2023-09-12T04:12:38;17.33;;;15.57;;
72085;SDS011;64750;52.134;5.424;2023-09-12T04:15:05;21.08;;;15.02;;
72085;SDS011;64750;52.134;5.424;2023-09-12T04:17:32;17.52;;;13.63;;
72085;SDS011;64750;52.134;5.424;2023-09-12T04:19:59;17.45;;;14.82;;
72085;SDS011;64750;52.134;5.424;2023-09-12T04:22:25;16.27;;;13.93;;
72085;SDS011;64750;52.134;5.424;2023-09-12T04:24:52;18.73;;;15.02;;
72085;SDS011;64750;52.134;5.424;2023-09-12T04:27:18;16.42;;;14.65;;
72085;SDS011;64750;52.134;5.424;2023-09-12T04:29:45;17.70;;;15.30;;
72085;SDS011;64750;52.134;5.424;2023-09-12T04:32:11;19.95;;;14.90;;
72085;SDS011;64750;52.134;5.424;2023-09-12T04:34:38;17.97;;;15.53;;
72085;SDS011;64750;52.134;5.424;2023-09-12T04:37:05;17.02;;;15.23;;
72085;SDS011;64750;52.134;5.424;2023-09-12T04:39:32;16.88;;;15.02;;
72085;SDS011;64750;52.134;5.424;2023-09-12T04:41:59;16.88;;;14.60;;
72085;SDS011;64750;52.134;5.424;2023-09-12T04:44:25;19.42;;;15.18;;
72085;SDS011;64750;52.134;5.424;2023-09-12T04:46:52;18.43;;;15.20;;
72085;SDS011;64750;52.134;5.424;2023-09-12T04:49:18;19.20;;;15.25;;
72085;SDS011;64750;52.134;5.424;2023-09-12T04:51:45;17.90;;;15.15;;
72085;SDS011;64750;52.134;5.424;2023-09-12T04:54:11;19.05;;;15.68;;
72085;SDS011;64750;52.134;5.424;2023-09-12T04:56:38;19.75;;;15.98;;
72085;SDS011;64750;52.134;5.424;2023-09-12T04:59:04;20.23;;;15.47;;
72085;SDS011;64750;52.134;5.424;2023-09-12T05:01:33;20.83;;;15.98;;
72085;SDS011;64750;52.134;5.424;2023-09-12T05:03:59;19.48;;;15.70;;
72085;SDS011;64750;52.134;5.424;2023-09-12T05:06:26;19.63;;;15.00;;
72085;SDS011;64750;52.134;5.424;2023-09-12T05:08:52;18.80;;;15.50;;
72085;SDS011;64750;52.134;5.424;2023-09-12T05:11:19;18.90;;;14.70;;
72085;SDS011;64750;52.134;5.424;2023-09-12T05:13:46;18.30;;;15.00;;
72085;SDS011;64750;52.134;5.424;2023-09-12T05:16:13;18.13;;;15.05;;
72085;SDS011;64750;52.134;5.424;2023-09-12T05:18:39;19.65;;;15.27;;
72085;SDS011;64750;52.134;5.424;2023-09-12T05:21:06;20.35;;;15.45;;
72085;SDS011;64750;52.134;5.424;2023-09-12T05:23:33;17.77;;;14.90;;
72085;SDS011;64750;52.134;5.424;2023-09-12T05:26:01;18.98;;;14.95;;
72085;SDS011;64750;52.134;5.424;2023-09-12T05:28:29;16.95;;;14.82;;
72085;SDS011;64750;52.134;5.424;2023-09-12T05:30:55;17.23;;;14.40;;
72085;SDS011;64750;52.134;5.424;2023-09-12T05:33:21;19.73;;;15.27;;
72085;SDS011;64750;52.134;5.424;2023-09-12T05:35:48;18.63;;;14.90;;
72085;SDS011;64750;52.134;5.424;2023-09-12T05:38:15;17.00;;;14.82;;
72085;SDS011;64750;52.134;5.424;2023-09-12T05:40:41;20.35;;;15.25;;
72085;SDS011;64750;52.134;5.424;2023-09-12T05:43:07;22.73;;;15.57;;
72085;SDS011;64750;52.134;5.424;2023-09-12T05:45:34;20.17;;;16.33;;
72085;SDS011;64750;52.134;5.424;2023-09-12T05:48:00;19.00;;;15.40;;
72085;SDS011;64750;52.134;5.424;2023-09-12T05:50:27;20.33;;;15.85;;
72085;SDS011;64750;52.134;5.424;2023-09-12T05:52:53;21.15;;;16.80;;
72085;SDS011;64750;52.134;5.424;2023-09-12T05:55:20;24.77;;;16.02;;
72085;SDS011;64750;52.134;5.424;2023-09-12T05:57:48;24.30;;;17.85;;
72085;SDS011;64750;52.134;5.424;2023-09-12T06:00:18;22.90;;;17.47;;
72085;SDS011;64750;52.134;5.424;2023-09-12T06:02:46;25.88;;;18.77;;
72085;SDS011;64750;52.134;5.424;2023-09-12T06:05:13;25.30;;;17.40;;
72085;SDS011;64750;52.134;5.424;2023-09-12T06:07:40;21.88;;;16.60;;
72085;SDS011;64750;52.134;5.424;2023-09-12T06:10:07;25.42;;;18.52;;
72085;SDS011;64750;52.134;5.424;2023-09-12T06:12:34;26.50;;;17.73;;
72085;SDS011;64750;52.134;5.424;2023-09-12T06:15:03;26.52;;;19.67;;
72085;SDS011;64750;52.134;5.424;2023-09-12T06:17:30;29.52;;;20.83;;
72085;SDS011;64750;52.134;5.424;2023-09-12T06:19:57;31.65;;;19.63;;
72085;SDS011;64750;52.134;5.424;2023-09-12T06:22:24;29.77;;;20.33;;
72085;SDS011;64750;52.134;5.424;2023-09-12T06:24:50;31.47;;;20.67;;
72085;SDS011;64750;52.134;5.424;2023-09-12T06:27:17;31.38;;;22.40;;
72085;SDS011;64750;52.134;5.424;2023-09-12T06:29:50;37.75;;;21.80;;
72085;SDS011;64750;52.134;5.424;2023-09-12T06:32:17;33.78;;;21.35;;
72085;SDS011;64750;52.134;5.424;2023-09-12T06:34:44;32.90;;;21.80;;
72085;SDS011;64750;52.134;5.424;2023-09-12T06:37:11;32.80;;;21.67;;
72085;SDS011;64750;52.134;5.424;2023-09-12T06:39:37;33.65;;;21.48;;
72085;SDS011;64750;52.134;5.424;2023-09-12T06:42:04;32.00;;;21.67;;
72085;SDS011;64750;52.134;5.424;2023-09-12T06:44:31;33.60;;;22.98;;
72085;SDS011;64750;52.134;5.424;2023-09-12T06:46:57;38.08;;;22.38;;
72085;SDS011;64750;52.134;5.424;2023-09-12T06:49:28;36.53;;;22.33;;
72085;SDS011;64750;52.134;5.424;2023-09-12T06:51:58;34.05;;;22.52;;
72085;SDS011;64750;52.134;5.424;2023-09-12T06:54:25;35.70;;;22.15;;
72085;SDS011;64750;52.134;5.424;2023-09-12T06:56:51;35.10;;;22.73;;
72085;SDS011;64750;52.134;5.424;2023-09-12T06:59:18;34.22;;;22.50;;
72085;SDS011;64750;52.134;5.424;2023-09-12T07:01:44;37.20;;;22.93;;
72085;SDS011;64750;52.134;5.424;2023-09-12T07:04:11;36.53;;;23.33;;
72085;SDS011;64750;52.134;5.424;2023-09-12T07:06:37;40.53;;;25.33;;
72085;SDS011;64750;52.134;5.424;2023-09-12T07:09:04;35.72;;;23.63;;
72085;SDS011;64750;52.134;5.424;2023-09-12T07:11:30;38.42;;;23.88;;
72085;SDS011;64750;52.134;5.424;2023-09-12T07:13:57;38.33;;;23.70;;
72085;SDS011;64750;52.134;5.424;2023-09-12T07:16:26;38.80;;;23.50;;
72085;SDS011;64750;52.134;5.424;2023-09-12T07:18:52;39.20;;;23.45;;
72085;SDS011;64750;52.134;5.424;2023-09-12T07:21:19;36.13;;;22.60;;
72085;SDS011;64750;52.134;5.424;2023-09-12T07:23:47;35.13;;;23.23;;
72085;SDS011;64750;52.134;5.424;2023-09-12T07:26:14;40.20;;;24.97;;
72085;SDS011;64750;52.134;5.424;2023-09-12T07:28:41;36.88;;;23.23;;
72085;SDS011;64750;52.134;5.424;2023-09-12T07:31:07;36.65;;;23.70;;
72085;SDS011;64750;52.134;5.424;2023-09-12T07:33:34;38.60;;;23.90;;
72085;SDS011;64750;52.134;5.424;2023-09-12T07:36:01;38.03;;;23.83;;
72085;SDS011;64750;52.134;5.424;2023-09-12T07:38:29;36.97;;;22.93;;
72085;SDS011;64750;52.134;5.424;2023-09-12T07:40:57;35.63;;;23.70;;
72085;SDS011;64750;52.134;5.424;2023-09-12T07:43:27;36.58;;;22.58;;
72085;SDS011;64750;52.134;5.424;2023-09-12T07:45:56;38.78;;;22.65;;
72085;SDS011;64750;52.134;5.424;2023-09-12T07:48:25;37.88;;;24.48;;
72085;SDS011;64750;52.134;5.424;2023-09-12T07:50:52;32.33;;;22.17;;
72085;SDS011;64750;52.134;5.424;2023-09-12T07:53:18;35.17;;;23.05;;
72085;SDS011;64750;52.134;5.424;2023-09-12T07:55:45;36.28;;;22.60;;
72085;SDS011;64750;52.134;5.424;2023-09-12T07:58:16;39.00;;;22.98;;
72085;SDS011;64750;52.134;5.424;2023-09-12T08:00:47;37.92;;;22.85;;
72085;SDS011;64750;52.134;5.424;2023-09-12T08:03:14;32.07;;;21.43;;
72085;SDS011;64750;52.134;5.424;2023-09-12T08:05:42;31.98;;;19.98;;
72085;SDS011;64750;52.134;5.424;2023-09-12T08:08:11;29.67;;;19.33;;
72085;SDS011;64750;52.134;5.424;2023-09-12T08:10:38;33.65;;;19.20;;
72085;SDS011;64750;52.134;5.424;2023-09-12T08:13:04;31.92;;;19.38;;
72085;SDS011;64750;52.134;5.424;2023-09-12T08:15:31;28.83;;;18.47;;
72085;SDS011;64750;52.134;5.424;2023-09-12T08:17:57;27.50;;;18.58;;
72085;SDS011;64750;52.134;5.424;2023-09-12T08:20:24;26.95;;;18.13;;
72085;SDS011;64750;52.134;5.424;2023-09-12T08:22:50;35.25;;;19.23;;
72085;SDS011;64750;52.134;5.424;2023-09-12T08:25:17;31.83;;;18.02;;
72085;SDS011;64750;52.134;5.424;2023-09-12T08:27:44;31.00;;;16.80;;
72085;SDS011;64750;52.134;5.424;2023-09-12T08:30:11;31.40;;;18.58;;
72085;SDS011;64750;52.134;5.424;2023-09-12T08:32:39;28.00;;;18.30;;
72085;SDS011;64750;52.134;5.424;2023-09-12T08:35:11;34.90;;;18.10;;
72085;SDS011;64750;52.134;5.424;2023-09-12T08:37:39;29.67;;;19.00;;
72085;SDS011;64750;52.134;5.424;2023-09-12T08:40:07;28.60;;;17.87;;
72085;SDS011;64750;52.134;5.424;2023-09-12T08:42:39;28.58;;;17.83;;
72085;SDS011;64750;52.134;5.424;2023-09-12T08:45:10;28.85;;;17.88;;
72085;SDS011;64750;52.134;5.424;2023-09-12T08:47:43;30.05;;;17.98;;
72085;SDS011;64750;52.134;5.424;2023-09-12T08:50:12;27.48;;;18.92;;
72085;SDS011;64750;52.134;5.424;2023-09-12T08:52:40;27.63;;;17.43;;
72085;SDS011;64750;52.134;5.424;2023-09-12T08:55:27;32.55;;;17.88;;
72085;SDS011;64750;52.134;5.424;2023-09-12T08:57:55;27.98;;;17.75;;
72085;SDS011;64750;52.134;5.424;2023-09-12T09:00:25;28.92;;;17.55;;
72085;SDS011;64750;52.134;5.424;2023-09-12T09:02:52;33.22;;;18.00;;
72085;SDS011;64750;52.134;5.424;2023-09-12T09:05:20;32.43;;;17.97;;
72085;SDS011;64750;52.134;5.424;2023-09-12T09:07:48;26.67;;;18.75;;
72085;SDS011;64750;52.134;5.424;2023-09-12T09:10:17;30.23;;;17.88;;
72085;SDS011;64750;52.134;5.424;2023-09-12T09:12:51;29.48;;;17.13;;
72085;SDS011;64750;52.134;5.424;2023-09-12T09:15:25;31.15;;;18.90;;
72085;SDS011;64750;52.134;5.424;2023-09-12T09:17:53;27.10;;;17.37;;
72085;SDS011;64750;52.134;5.424;2023-09-12T09:20:22;30.83;;;16.85;;
72085;SDS011;64750;52.134;5.424;2023-09-12T09:23:01;27.88;;;18.30;;
72085;SDS011;64750;52.134;5.424;2023-09-12T09:25:33;29.02;;;17.35;;
72085;SDS011;64750;52.134;5.424;2023-09-12T09:28:15;31.13;;;17.85;;
72085;SDS011;64750;52.134;5.424;2023-09-12T09:30:46;24.33;;;16.90;;
72085;SDS011;64750;52.134;5.424;2023-09-12T09:33:14;28.25;;;18.80;;
72085;SDS011;64750;52.134;5.424;2023-09-12T09:35:42;32.08;;;19.13;;
72085;SDS011;64750;52.134;5.424;2023-09-12T09:38:09;32.22;;;21.25;;
72085;SDS011;64750;52.134;5.424;2023-09-12T09:40:45;32.05;;;21.80;;
72085;SDS011;64750;52.134;5.424;2023-09-12T09:43:12;36.03;;;21.57;;
72085;SDS011;64750;52.134;5.424;2023-09-12T09:45:45;35.20;;;22.40;;
72085;SDS011;64750;52.134;5.424;2023-09-12T09:48:23;33.88;;;22.70;;
72085;SDS011;64750;52.134;5.424;2023-09-12T09:50:51;37.53;;;21.95;;
72085;SDS011;64750;52.134;5.424;2023-09-12T09:53:31;36.05;;;21.98;;
72085;SDS011;64750;52.134;5.424;2023-09-12T09:58:42;37.97;;;23.17;;
72085;SDS011;64750;52.134;5.424;2023-09-12T10:01:14;37.10;;;22.85;;
72085;SDS011;64750;52.134;5.424;2023-09-12T10:03:48;38.10;;;21.40;;
72085;SDS011;64750;52.134;5.424;2023-09-12T10:06:17;36.92;;;22.25;;
72085;SDS011;64750;52.134;5.424;2023-09-12T10:08:46;40.53;;;22.87;;
72085;SDS011;64750;52.134;5.424;2023-09-12T10:11:17;39.28;;;23.92;;
72085;SDS011;64750;52.134;5.424;2023-09-12T10:13:57;35.40;;;22.33;;
72085;SDS011;64750;52.134;5.424;2023-09-12T10:16:29;32.47;;;22.27;;
72085;SDS011;64750;52.134;5.424;2023-09-12T10:24:20;33.30;;;21.55;;
72085;SDS011;64750;52.134;5.424;2023-09-12T10:26:49;36.13;;;20.55;;
72085;SDS011;64750;52.134;5.424;2023-09-12T10:29:16;31.00;;;20.65;;
72085;SDS011;64750;52.134;5.424;2023-09-12T10:31:43;31.30;;;20.27;;
72085;SDS011;64750;52.134;5.424;2023-09-12T10:34:10;32.10;;;18.47;;
72085;SDS011;64750;52.134;5.424;2023-09-12T10:36:43;29.73;;;19.10;;
72085;SDS011;64750;52.134;5.424;2023-09-12T10:39:12;29.88;;;18.13;;
72085;SDS011;64750;52.134;5.424;2023-09-12T10:41:40;30.58;;;19.15;;
72085;SDS011;64750;52.134;5.424;2023-09-12T10:44:14;28.75;;;18.13;;
72085;SDS011;64750;52.134;5.424;2023-09-12T10:46:43;33.47;;;19.23;;
72085;SDS011;64750;52.134;5.424;2023-09-12T10:49:14;28.85;;;18.48;;
72085;SDS011;64750;52.134;5.424;2023-09-12T10:51:42;26.75;;;17.08;;
72085;SDS011;64750;52.134;5.424;2023-09-12T10:54:13;25.42;;;17.05;;
72085;SDS011;64750;52.134;5.424;2023-09-12T10:56:41;26.20;;;16.63;;
72085;SDS011;64750;52.134;5.424;2023-09-12T10:59:09;25.50;;;16.57;;
72085;SDS011;64750;52.134;5.424;2023-09-12T11:01:37;28.70;;;15.88;;
72085;SDS011;64750;52.134;5.424;2023-09-12T11:06:46;23.60;;;14.82;;
72085;SDS011;64750;52.134;5.424;2023-09-12T11:11:46;25.43;;;17.73;;
72085;SDS011;64750;52.134;5.424;2023-09-12T11:14:13;22.88;;;15.77;;
72085;SDS011;64750;52.134;5.424;2023-09-12T11:16:42;27.77;;;17.55;;
72085;SDS011;64750;52.134;5.424;2023-09-12T11:19:19;29.25;;;18.35;;
72085;SDS011;64750;52.134;5.424;2023-09-12T11:21:50;22.20;;;16.15;;
72085;SDS011;64750;52.134;5.424;2023-09-12T11:24:18;24.87;;;17.30;;
72085;SDS011;64750;52.134;5.424;2023-09-12T11:27:01;20.67;;;14.73;;
72085;SDS011;64750;52.134;5.424;2023-09-12T11:29:37;21.38;;;14.73;;
72085;SDS011;64750;52.134;5.424;2023-09-12T11:32:05;22.67;;;14.63;;
72085;SDS011;64750;52.134;5.424;2023-09-12T11:34:36;21.65;;;14.45;;
72085;SDS011;64750;52.134;5.424;2023-09-12T11:37:05;18.53;;;13.90;;
72085;SDS011;64750;52.134;5.424;2023-09-12T11:39:32;17.63;;;13.05;;
72085;SDS011;64750;52.134;5.424;2023-09-12T11:42:01;17.25;;;12.93;;
72085;SDS011;64750;52.134;5.424;2023-09-12T11:44:29;20.20;;;14.73;;
72085;SDS011;64750;52.134;5.424;2023-09-12T11:47:01;18.48;;;13.25;;
72085;SDS011;64750;52.134;5.424;2023-09-12T11:49:39;21.00;;;14.60;;
72085;SDS011;64750;52.134;5.424;2023-09-12T11:52:13;22.00;;;14.75;;
72085;SDS011;64750;52.134;5.424;2023-09-12T11:54:45;22.92;;;16.13;;
72085;SDS011;64750;52.134;5.424;2023-09-12T11:57:13;22.05;;;15.52;;
72085;SDS011;64750;52.134;5.424;2023-09-12T11:59:41;25.63;;;14.82;;
72085;SDS011;64750;52.134;5.424;2023-09-12T12:02:13;18.30;;;14.37;;
72085;SDS011;64750;52.134;5.424;2023-09-12T12:04:40;19.17;;;14.20;;
72085;SDS011;64750;52.134;5.424;2023-09-12T12:07:08;22.95;;;14.32;;
72085;SDS011;64750;52.134;5.424;2023-09-12T12:09:39;18.50;;;13.07;;
72085;SDS011;64750;52.134;5.424;2023-09-12T12:12:10;15.00;;;13.07;;
72085;SDS011;64750;52.134;5.424;2023-09-12T12:14:38;20.80;;;12.00;;
72085;SDS011;64750;52.134;5.424;2023-09-12T12:17:07;13.20;;;10.18;;
72085;SDS011;64750;52.134;5.424;2023-09-12T12:19:35;11.65;;;9.45;;
72085;SDS011;64750;52.134;5.424;2023-09-12T12:22:03;9.68;;;8.52;;
72085;SDS011;64750;52.134;5.424;2023-09-12T12:24:45;12.25;;;9.77;;
72085;SDS011;64750;52.134;5.424;2023-09-12T12:27:16;14.97;;;10.60;;
72085;SDS011;64750;52.134;5.424;2023-09-12T12:29:43;14.57;;;12.18;;
72085;SDS011;64750;52.134;5.424;2023-09-12T12:32:10;15.75;;;12.63;;
72085;SDS011;64750;52.134;5.424;2023-09-12T12:34:37;15.13;;;11.48;;
72085;SDS011;64750;52.134;5.424;2023-09-12T12:37:28;10.40;;;8.85;;
72085;SDS011;64750;52.134;5.424;2023-09-12T12:39:57;12.30;;;10.50;;
72085;SDS011;64750;52.134;5.424;2023-09-12T12:42:24;12.27;;;8.88;;
72085;SDS011;64750;52.134;5.424;2023-09-12T12:44:53;13.48;;;9.45;;
72085;SDS011;64750;52.134;5.424;2023-09-12T12:47:20;10.82;;;8.68;;
72085;SDS011;64750;52.134;5.424;2023-09-12T12:49:52;11.18;;;9.10;;
72085;SDS011;64750;52.134;5.424;2023-09-12T12:52:22;13.97;;;9.97;;
72085;SDS011;64750;52.134;5.424;2023-09-12T12:54:52;10.27;;;7.75;;
72085;SDS011;64750;52.134;5.424;2023-09-12T12:57:20;8.20;;;7.45;;
72085;SDS011;64750;52.134;5.424;2023-09-12T12:59:47;9.52;;;7.05;;
72085;SDS011;64750;52.134;5.424;2023-09-12T13:02:15;7.13;;;6.43;;
72085;SDS011;64750;52.134;5.424;2023-09-12T13:04:42;5.53;;;5.07;;
72085;SDS011;64750;52.134;5.424;2023-09-12T13:07:08;11.40;;;6.85;;
72085;SDS011;64750;52.134;5.424;2023-09-12T13:09:36;7.10;;;6.40;;
72085;SDS011;64750;52.134;5.424;2023-09-12T13:12:04;7.63;;;5.38;;
72085;SDS011;64750;52.134;5.424;2023-09-12T13:14:31;6.40;;;5.35;;
72085;SDS011;64750;52.134;5.424;2023-09-12T13:17:01;6.13;;;5.60;;
72085;SDS011;64750;52.134;5.424;2023-09-12T13:19:29;8.18;;;5.57;;
72085;SDS011;64750;52.134;5.424;2023-09-12T13:21:56;5.55;;;4.88;;
72085;SDS011;64750;52.134;5.424;2023-09-12T13:24:23;10.40;;;5.28;;
72085;SDS011;64750;52.134;5.424;2023-09-12T13:26:49;6.00;;;5.35;;
72085;SDS011;64750;52.134;5.424;2023-09-12T13:29:16;8.50;;;5.23;;
72085;SDS011;64750;52.134;5.424;2023-09-12T13:31:43;6.35;;;5.75;;
72085;SDS011;64750;52.134;5.424;2023-09-12T13:34:09;7.45;;;5.45;;
72085;SDS011;64750;52.134;5.424;2023-09-12T13:36:36;5.85;;;5.30;;
72085;SDS011;64750;52.134;5.424;2023-09-12T13:39:02;7.15;;;6.40;;
72085;SDS011;64750;52.134;5.424;2023-09-12T13:41:30;9.47;;;6.07;;
72085;SDS011;64750;52.134;5.424;2023-09-12T13:43:56;4.90;;;3.65;;
72085;SDS011;64750;52.134;5.424;2023-09-12T13:46:23;4.63;;;2.95;;
72085;SDS011;64750;52.134;5.424;2023-09-12T13:48:50;3.53;;;2.75;;
72085;SDS011;64750;52.134;5.424;2023-09-12T13:51:16;4.72;;;3.28;;
72085;SDS011;64750;52.134;5.424;2023-09-12T13:53:43;6.50;;;2.93;;
72085;SDS011;64750;52.134;5.424;2023-09-12T13:56:10;7.75;;;2.88;;
72085;SDS011;64750;52.134;5.424;2023-09-12T13:58:40;9.27;;;2.92;;
72085;SDS011;64750;52.134;5.424;2023-09-12T14:01:10;3.58;;;2.95;;
72085;SDS011;64750;52.134;5.424;2023-09-12T14:03:43;6.18;;;4.95;;
72085;SDS011;64750;52.134;5.424;2023-09-12T14:06:10;5.70;;;5.20;;
72085;SDS011;64750;52.134;5.424;2023-09-12T14:08:37;5.82;;;5.20;;
72085;SDS011;64750;52.134;5.424;2023-09-12T14:11:03;6.28;;;5.50;;
72085;SDS011;64750;52.134;5.424;2023-09-12T14:13:33;12.10;;;7.47;;
72085;SDS011;64750;52.134;5.424;2023-09-12T14:16:00;6.78;;;6.05;;
72085;SDS011;64750;52.134;5.424;2023-09-12T14:18:27;6.50;;;5.90;;
72085;SDS011;64750;52.134;5.424;2023-09-12T14:20:54;10.60;;;8.02;;
72085;SDS011;64750;52.134;5.424;2023-09-12T14:23:22;9.90;;;7.63;;
72085;SDS011;64750;52.134;5.424;2023-09-12T14:25:48;9.63;;;6.78;;
72085;SDS011;64750;52.134;5.424;2023-09-12T14:28:15;8.27;;;7.07;;
72085;SDS011;64750;52.134;5.424;2023-09-12T14:30:43;9.33;;;7.53;;
72085;SDS011;64750;52.134;5.424;2023-09-12T14:33:14;8.50;;;7.38;;
72085;SDS011;64750;52.134;5.424;2023-09-12T14:35:43;12.15;;;9.45;;
72085;SDS011;64750;52.134;5.424;2023-09-12T14:38:11;11.57;;;8.90;;
72085;SDS011;64750;52.134;5.424;2023-09-12T14:40:37;8.50;;;7.13;;
72085;SDS011;64750;52.134;5.424;2023-09-12T14:43:04;8.47;;;7.67;;
72085;SDS011;64750;52.134;5.424;2023-09-12T14:45:33;10.75;;;7.88;;